Weather observations for the past three days for
Starke County Airport
Imperial (Metric)
Date Time (cdt) Wind (mph) Vis. (mi.) Weather Sky Cond. Temperature (ºF) Relative Humidity Wind Chill (°F) Heat Index (°F) Pressure Precipitation (in)
Air Dwpt 6 hour altimeter (in) sea level (mb) 1 hr 3 hr 6 hr
Max. Min.
07 23:15 S 6 10.00 Fair CLR 44.6 44.6 100% 42 29.88 0.0
07 22:55 S 7 10.00 Fair CLR 44.6 44.6 100% 41 29.88 0.0
07 22:35 S 8 10.00 Fair CLR 44.6 44.6 100% 41 29.88 0.0
07 22:15 S 6 10.00 A Few Clouds FEW050 FEW075 44.6 44.6 100% 42 29.88 0.0
07 21:55 SE 6 10.00 Mostly Cloudy FEW050 BKN085 44.6 44.6 100% 42 29.88 0.0
07 21:35 SE 5 10.00 Mostly Cloudy FEW050 BKN085 44.6 44.6 100% 43 29.89 0.0
07 21:15 S 6 10.00 Fair CLR 44.6 44.6 100% 42 29.88 0.0
07 20:55 SE 6 10.00 Fair CLR 44.6 44.6 100% 42 29.87 0.0
07 20:35 S 8 10.00 Fair CLR 44.6 44.6 100% 41 29.86 0.0
07 20:15 E 6 10.00 Partly Cloudy SCT075 SCT080 SCT110 46.4 46.4 100% 44 29.86 0.0
07 19:55 NE 7 10.00 Light Rain BKN055 BKN070 OVC080 48.2 46.4 94% 46 29.87 0.0
07 19:35 N 14 10.00 Light Rain SCT041 BKN048 OVC055 46.4 46.4 100% 41 29.88 0.0
07 19:15 N 24 G 41 2.50 Light Rain Haze and Breezy BKN045 BKN060 OVC090 48.2 42.8 82% 41 29.87 0.0
07 18:55 S 15 10.00 Partly Cloudy FEW060 SCT080 SCT090 55.4 41 59.7 49.8 59% 29.82 0.0
07 18:35 S 9 G 17 10.00 Mostly Cloudy BKN070 57.2 41 55% 29.84 0.0
07 18:15 S 12 10.00 Mostly Cloudy BKN080 BKN090 55.4 41 59% 29.85 0.0
07 17:55 S 13 10.00 Partly Cloudy FEW060 SCT070 SCT085 55.4 39.2 55% 29.86 0.0
07 17:35 SW 15 G 22 10.00 Partly Cloudy FEW055 SCT070 SCT080 55.4 39.2 55% 29.87 0.0
07 17:15 S 18 G 24 10.00 Partly Cloudy FEW070 SCT085 55.4 39.2 55% 29.86 0.0
07 16:55 SW 16 10.00 Partly Cloudy SCT075 SCT090 57.2 41 55% 29.87 0.0
07 16:35 SW 14 G 21 10.00 Partly Cloudy SCT075 SCT090 55.4 41 59% 29.88 0.0
07 16:15 SW 16 G 20 10.00 Partly Cloudy SCT075 SCT090 53.6 41 63% 29.89 0.0
07 15:55 SW 13 10.00 A Few Clouds FEW075 FEW090 53.6 44.6 72% 29.89 0.0
07 15:35 W 18 G 24 7.00 Light Rain Haze CLR 50 44.6 82% 44 29.91 0.0
07 15:15 SW 24 G 30 10.00 Partly Cloudy and Breezy FEW050 SCT070 SCT080 53.6 37.4 54% 29.91 0.0
07 14:55 W 25 G 30 10.00 Partly Cloudy and Breezy SCT060 57.2 33.8 41% 29.91 0.0
07 14:35 W 17 G 24 10.00 A Few Clouds FEW065 59 33.8 39% 29.91 0.0
07 14:15 SW 8 G 30 10.00 Mostly Cloudy BKN075 57.2 33.8 41% 29.92 0.0
07 13:55 W 14 G 20 10.00 Mostly Cloudy BKN075 57.2 32 39% 29.91 0.0
07 13:35 W 13 10.00 Partly Cloudy SCT075 57.2 32 39% 29.91 0.0
07 13:15 W 14 G 21 10.00 Fair CLR 59 32 36% 29.92 0.0
07 12:55 W 14 G 22 10.00 Fair CLR 59 32 58.8 38.1 36% 29.93 0.0
07 12:35 SW 13 G 20 10.00 Fair CLR 57.2 32 39% 29.94 0.0
07 12:15 SW 14 G 24 10.00 A Few Clouds FEW065 57.2 32 39% 29.95 0.0
07 11:55 W 15 G 24 10.00 Fair CLR 55.4 32 41% 29.96 0.0
07 11:35 W 12 G 22 10.00 Fair CLR 55.4 32 41% 29.97 0.0
07 11:15 Vrbl 7 10.00 Fair CLR 53.6 32 44% 29.97 0.0
07 10:55 W 9 10.00 Fair CLR 53.6 30.2 41% 29.98 0.0
07 10:35 W 13 G 18 10.00 Fair CLR 51.8 30.2 44% 29.99 0.0
07 10:15 W 12 G 17 10.00 Fair CLR 51.8 30.2 44% 30 0.0
07 09:55 W 9 10.00 Fair CLR 51.8 30.2 44% 29.99 0.0
07 09:35 NW 12 G 17 10.00 Fair CLR 51.8 32 47% 29.99 0.0
07 09:15 W 14 10.00 Fair CLR 50 30.2 47% 45 29.99 0.0
07 08:55 W 12 10.00 Fair CLR 48.2 30.2 50% 44 30 0.0
07 08:35 W 9 10.00 Fair CLR 48.2 30.2 50% 45 29.99 0.0
07 08:15 W 7 10.00 Fair CLR 46.4 33.8 62% 43 29.99 0.0
07 07:55 W 7 10.00 Fair CLR 44.6 33.8 66% 41 30 0.0
07 07:35 W 7 10.00 Fair CLR 42.8 33.8 71% 39 29.99 0.0
07 07:15 W 7 10.00 Fair CLR 41 35.6 81% 37 29.99 0.0
07 06:55 SW 3 10.00 Fair CLR 39.2 35.6 40.6 32.9 87% 29.99 0.0
07 06:35 SW 2 10.00 Fair CLR 37.4 33.8 87% 29.99 0.0
07 06:15 SW 5 10.00 Fair CLR 33.8 32 93% 30 29.98 0.0
07 05:55 SW 6 10.00 Fair CLR 33.8 32 93% 29 29.98 0.0
07 05:35 SW 6 10.00 Fair CLR 35.6 32 87% 31 29.98 0.0
07 05:15 SW 6 10.00 Fair CLR 35.6 33.8 93% 31 29.98 0.0
07 04:55 W 6 10.00 Fair CLR 35.6 33.8 93% 31 29.98 0.0
07 04:35 SW 6 10.00 Fair CLR 33.8 33.8 100% 29 29.98 0.0
07 04:15 SW 5 10.00 Fair CLR 35.6 33.8 93% 32 29.98 0.0
07 03:55 SW 5 10.00 Fair CLR 35.6 33.8 93% 32 29.98 0.0
07 03:35 SW 6 10.00 Fair CLR 33.8 32 93% 29 29.98 0.0
07 03:15 SW 3 10.00 Fair CLR 33.8 33.8 100% 29.98 0.0
07 02:55 SW 3 10.00 Fair CLR 35.6 32 87% 29.98 0.0
07 02:15 W 5 10.00 Fair CLR 37.4 32 81% 34 29.98 0.0
07 01:55 W 5 10.00 Fair CLR 37.4 30.2 75% 34 29.98 0.0
07 01:35 W 6 10.00 Fair CLR 37.4 32 81% 33 29.98 0.0
07 01:15 W 6 10.00 Fair CLR 39.2 30.2 70% 36 29.98 0.0
07 00:55 W 5 10.00 Fair CLR 41 30.2 54.9 38.7 66% 38 29.98 0.0
07 00:35 W 5 10.00 Fair CLR 39.2 32 75% 36 29.99 0.0
07 00:15 W 5 10.00 Fair CLR 41 30.2 66% 38 29.99 0.0
06 23:55 W 7 10.00 Fair CLR 42.8 30.2 61% 39 29.99 0.0
06 23:35 W 9 10.00 Fair CLR 44.6 30.2 57% 40 29.98 0.0
06 23:15 W 8 10.00 Fair CLR 44.6 32 61% 41 29.98 0.0
06 22:55 W 8 10.00 Fair CLR 46.4 30.2 53% 43 29.98 0.0
06 22:35 W 8 10.00 Fair CLR 46.4 30.2 53% 43 29.98 0.0
06 22:15 W 7 10.00 Fair CLR 46.4 30.2 53% 43 29.98 0.0
06 21:35 W 9 10.00 Mostly Cloudy BKN080 48.2 32 54% 45 29.97 0.0
06 21:15 W 8 10.00 Mostly Cloudy BKN080 50 32 50% 47 29.96 0.0
06 20:55 W 8 10.00 Overcast OVC080 50 32 50% 47 29.95 0.0
06 20:35 W 8 10.00 Overcast OVC080 50 32 50% 47 29.95 0.0
06 20:15 W 9 10.00 Mostly Cloudy BKN080 50 32 50% 47 29.94 0.0
06 19:55 W 9 G 17 10.00 Fair CLR 51.8 30.2 44% 29.94 0.0
06 19:35 W 13 10.00 A Few Clouds FEW080 51.8 30.2 44% 29.94 0.0
06 19:15 W 14 G 22 10.00 Mostly Cloudy BKN080 53.6 30.2 41% 29.93 0.0
06 18:55 W 13 G 18 10.00 Overcast OVC080 55.4 30.2 58.5 54.1 38% 29.93 0.0
06 18:35 W 15 10.00 Mostly Cloudy BKN080 53.6 30.2 41% 29.93 0.0
06 18:15 W 14 G 20 10.00 Mostly Cloudy FEW070 BKN080 55.4 30.2 38% 29.93 0.0
06 17:55 W 12 10.00 Mostly Cloudy SCT070 BKN080 55.4 32 41% 29.93 0.0
06 17:35 W 15 G 21 10.00 Partly Cloudy SCT080 55.4 32 41% 29.92 0.0
06 16:55 W 14 G 25 10.00 Partly Cloudy SCT075 57.2 32 39% 29.92 0.0
06 16:35 W 10 10.00 Partly Cloudy SCT075 55.4 30.2 38% 29.92 0.0
06 16:15 W 14 G 23 10.00 Partly Cloudy SCT065 SCT075 57.2 30.2 36% 29.92 0.0
06 15:55 W 13 10.00 Mostly Cloudy BKN065 BKN075 55.4 32 41% 29.92 0.0
06 15:35 W 10 G 18 10.00 Overcast BKN065 OVC075 57.2 32 39% 29.92 0.0
06 15:15 W 10 10.00 Overcast BKN070 OVC080 55.4 32 41% 29.93 0.0
06 14:55 W 12 G 20 10.00 Overcast OVC070 57.2 32 39% 29.93 0.0
06 14:35 Vrbl 5 10.00 Mostly Cloudy BKN070 BKN080 55.4 30.2 38% 29.93 0.0
06 14:15 W 12 10.00 Partly Cloudy SCT070 57.2 30.2 36% 29.94 0.0
06 13:55 Vrbl 5 10.00 Partly Cloudy SCT070 57.2 32 39% 29.94 0.0
06 13:35 W 10 G 17 10.00 NULL NULL 57.2 30.2 36% 29.94 0.0
06 13:15 SW 9 10.00 NULL NULL 57.2 32 39% 29.94 0.0
06 12:55 N 7 10.00 NULL NULL 55.4 32 56.1 42.6 41% 29.95 0.0
06 12:35 NW 7 10.00 NULL NULL 53.6 30.2 41% 29.95 0.0
06 12:15 Vrbl 6 10.00 NULL NULL 53.6 30.2 41% 29.94 0.0
06 11:55 Vrbl 6 10.00 NULL NULL 55.4 32 41% 29.94 0.0
06 11:35 Vrbl 3 10.00 NULL NULL 53.6 30.2 41% 29.94 0.0
06 11:15 Vrbl 3 10.00 NULL NULL 51.8 30.2 44% 29.95 0.0
06 10:55 Vrbl 6 10.00 NULL NULL 51.8 30.2 44% 29.95 0.0
06 10:35 Vrbl 5 10.00 NULL NULL 51.8 30.2 44% 29.95 0.0
06 10:15 Vrbl 5 10.00 NULL NULL 51.8 32 47% 29.95 0.0
06 09:55 Vrbl 3 10.00 NULL NULL 50 32 50% 29.95 0.0
06 09:35 N 6 10.00 NULL NULL 48.2 33.8 58% 46 29.94 0.0
06 09:15 N 5 10.00 NULL NULL 48.2 33.8 58% 47 29.94 0.0
06 08:55 N 7 10.00 NULL NULL 48.2 35.6 62% 46 29.94 0.0
06 08:35 NE 7 10.00 NULL NULL 48.2 33.8 58% 46 29.93 0.0
06 08:15 NE 9 10.00 NULL NULL 48.2 35.6 62% 45 29.92 0.0
06 07:55 NE 5 10.00 Fair CLR 46.4 37.4 71% 45 29.91 0.0
06 07:15 N 5 10.00 Fair CLR 44.6 39.2 81% 43 29.9 0.0
06 06:55 N 3 10.00 Fair CLR 42.8 37.4 47.5 38.1 81% 29.9 0.0
06 06:35 N 2 10.00 Fair CLR 41 39.2 93% 29.89 0.0
06 05:55 N 3 10.00 Fair CLR 39.2 35.6 87% 29.87 0.0
06 05:35 N 3 10.00 Fair CLR 39.2 35.6 87% 29.86 0.0
06 05:15 N 5 10.00 Fair CLR 39.2 37.4 93% 36 29.86 0.0
06 04:55 N 5 10.00 Fair CLR 39.2 37.4 93% 36 29.86 0.0
06 04:35 N 6 10.00 Fair CLR 41 37.4 87% 38 29.85 0.0
06 04:15 N 7 10.00 Fair CLR 41 39.2 93% 37 29.85 0.0
06 03:55 N 8 10.00 Fair CLR 41 41 100% 36 29.84 0.0
06 03:35 N 7 10.00 Fair CLR 41 41 100% 37 29.85 0.0
06 03:15 N 7 8.00 Fair CLR 42.8 42.8 100% 39 29.84 0.0
06 02:55 N 6 10.00 Fair CLR 42.8 42.8 100% 40 29.82 0.0
06 02:35 NE 3 10.00 Fair CLR 44.6 44.6 100% 29.81 0.0
06 02:15 NE 2 10.00 Fair CLR 46.4 46.4 100% 29.82 0.0
06 01:55 N 3 10.00 Partly Cloudy FEW100 SCT120 46.4 46.4 100% 29.82 0.0
06 01:35 NW 2 10.00 Overcast SCT080 BKN100 OVC120 46.4 46.4 100% 29.82 0.0
06 01:15 Calm 10.00 Overcast OVC075 46.4 46.4 100% 29.82 0.0
06 00:55 E 2 10.00 Mostly Cloudy BKN085 BKN110 48.2 46.4 50.5 47.1 94% 29.83 0.0
06 00:35 SE 3 10.00 Mostly Cloudy FEW055 BKN085 BKN110 48.2 46.4 94% 29.82 0.0
06 00:15 S 3 10.00 Overcast BKN075 OVC090 48.2 46.4 94% 29.83 0.0
05 23:55 SW 5 10.00 Overcast OVC075 48.2 46.4 94% 47 29.84 0.0
05 23:35 SW 3 10.00 Overcast OVC075 48.2 48.2 100% 29.83 0.0
05 23:15 SW 2 10.00 Overcast OVC075 48.2 48.2 100% 29.83 0.0
05 22:55 S 1 10.00 Overcast OVC075 48.2 48.2 100% 29.82 0.0
05 22:35 S 2 10.00 Overcast OVC075 48.2 48.2 100% 29.81 0.0
05 22:15 S 1 10.00 Overcast OVC065 48.2 48.2 100% 29.82 0.0
05 21:35 E 1 10.00 Overcast BKN080 OVC100 50 46.4 88% 29.82 0.0
05 21:15 E 1 10.00 Mostly Cloudy BKN100 BKN120 48.2 48.2 100% 29.81 0.0
05 20:55 SE 3 10.00 Mostly Cloudy BKN090 BKN120 48.2 48.2 100% 29.8 0.0
05 20:35 SE 2 10.00 Overcast FEW075 OVC090 50 46.4 88% 29.8 0.0
05 20:15 SE 2 10.00 Overcast OVC080 50 46.4 88% 29.79 0.0
05 19:55 S 3 10.00 Overcast OVC080 50 46.4 88% 29.79 0.0
05 19:35 SE 2 10.00 Overcast OVC080 50 44.6 82% 29.78 0.0
05 19:15 E 3 10.00 Overcast OVC080 50 44.6 82% 29.78 0.0
05 18:55 NE 6 10.00 Overcast OVC080 50 44.6 56.3 50.4 82% 48 29.77 0.0
05 18:35 NE 3 10.00 Mostly Cloudy BKN080 50 44.6 82% 29.77 0.0
05 18:15 NE 5 10.00 Light Rain FEW080 50 44.6 82% 49 29.78 0.0
05 17:55 NE 6 10.00 Light Rain FEW001 FEW080 51.8 44.6 77% 29.79 0.0
05 17:35 N 6 9.00 Light Rain FEW001 FEW070 51.8 44.6 77% 29.79 0.0
05 17:15 N 6 10.00 Light Rain FEW055 SCT075 51.8 42.8 72% 29.79 0.0
05 16:55 N 7 10.00 Mostly Cloudy FEW065 BKN075 53.6 41 63% 29.79 0.0
05 16:35 Vrbl 5 10.00 A Few Clouds FEW080 FEW085 53.6 41 63% 29.79 0.0
05 16:15 N 8 10.00 Partly Cloudy SCT038 53.6 39.2 58% 29.79 0.0
05 15:55 N 12 10.00 Overcast OVC036 53.6 39.2 58% 29.8 0.0
05 15:35 N 8 10.00 Mostly Cloudy BKN032 BKN039 53.6 39.2 58% 29.79 0.0
05 15:15 W 5 10.00 Partly Cloudy FEW032 SCT039 55.4 44.6 67% 29.79 0.0
05 14:35 NW 7 10.00 Overcast BKN032 OVC039 55.4 44.6 67% 29.79 0.0
05 14:15 W 8 10.00 Overcast OVC034 55.4 44.6 67% 29.8 0.0
05 13:55 W 8 10.00 Mostly Cloudy BKN034 BKN040 55.4 44.6 67% 29.8 0.0
05 13:35 W 9 G 16 10.00 Mostly Cloudy BKN034 55.4 44.6 67% 29.81 0.0
05 12:55 W 8 10.00 Mostly Cloudy SCT030 BKN080 55.4 44.6 56.1 45.5 67% 29.8 0.0
05 12:35 Vrbl 6 10.00 Mostly Cloudy FEW026 FEW033 BKN080 53.6 44.6 72% 29.8 0.0
05 12:15 NW 8 10.00 A Few Clouds FEW080 53.6 44.6 72% 29.8 0.0
05 11:55 NW 7 10.00 Partly Cloudy FEW023 SCT090 51.8 42.8 72% 29.8 0.0
05 11:35 N 5 10.00 Partly Cloudy SCT090 SCT110 50 42.8 76% 49 29.82 0.0
05 11:15 NW 9 10.00 A Few Clouds FEW120 48.2 41 76% 45 29.81 0.0
05 10:55 N 10 10.00 Partly Cloudy FEW095 SCT120 48.2 42.8 82% 44 29.8 0.0
05 10:35 N 9 10.00 Mostly Cloudy BKN085 BKN100 46.4 41 82% 42 29.8 0.0
05 10:15 N 9 10.00 Mostly Cloudy BKN085 46.4 41 82% 42 29.8 0.0
05 09:55 N 14 10.00 Light Rain FEW060 BKN085 46.4 41 82% 41 29.8 0.0
05 09:35 N 13 10.00 Overcast FEW050 OVC085 46.4 39.2 76% 41 29.81 0.0
05 09:15 N 14 10.00 Overcast OVC065 46.4 39.2 76% 41 29.82 0.0
05 08:55 N 13 G 22 10.00 Overcast FEW050 SCT065 OVC085 48.2 35.6 62% 43 29.82 0.0
05 08:35 N 9 10.00 Overcast OVC090 48.2 37.4 66% 45 29.8 0.0
05 08:15 N 10 10.00 Overcast OVC090 48.2 37.4 66% 44 29.79 0.0
05 07:55 NW 12 10.00 Mostly Cloudy BKN090 48.2 37.4 66% 44 29.79 0.0
05 07:35 N 15 10.00 A Few Clouds FEW090 50 39.2 67% 45 29.77 0.0
05 07:15 N 14 10.00 Fair CLR 50 41 71% 45 29.73 0.0
05 06:55 N 9 10.00 Fair CLR 50 41 56.8 49.3 71% 47 29.73 0.0
05 06:35 N 10 10.00 Fair CLR 50 41 71% 46 29.72 0.0
05 06:15 N 9 10.00 Fair CLR 50 41 71% 47 29.71 0.0
05 05:55 N 12 10.00 Partly Cloudy FEW075 SCT090 50 41 71% 46 29.7 0.0
05 05:35 N 14 10.00 Overcast FEW048 BKN075 OVC090 51.8 41 67% 29.72 0.0
05 05:15 NW 16 G 22 10.00 Overcast FEW048 FEW060 OVC075 53.6 42.8 67% 29.71 0.0
05 04:55 W 12 10.00 Overcast FEW046 FEW060 OVC075 55.4 55.4 100% 29.68 0.0
05 04:35 W 9 10.00 Overcast FEW055 BKN075 OVC095 55.4 55.4 100% 29.67 0.0
05 04:15 SW 8 10.00 Mostly Cloudy SCT075 BKN095 BKN120 53.6 53.6 100% 29.66 0.0
05 03:55 SW 8 10.00 Mostly Cloudy BKN085 BKN120 55.4 55.4 100% 29.65 0.0
05 03:35 SW 7 10.00 Overcast OVC075 55.4 55.4 100% 29.65 0.0
05 03:15 SW 7 10.00 Overcast OVC075 55.4 55.4 100% 29.64 0.0
05 02:55 SW 9 10.00 Overcast OVC075 55.4 55.4 100% 29.64 0.0
05 02:35 SW 12 10.00 Overcast OVC075 55.4 55.4 100% 29.63 0.0
05 02:15 S 13 10.00 Overcast OVC075 57.2 55.4 94% 29.63 0.0
05 01:55 SW 10 10.00 Partly Cloudy SCT075 57.2 55.4 94% 29.63 0.0
05 01:35 S 13 10.00 Fair CLR 57.2 55.4 94% 29.61 0.0
05 01:15 SW 8 10.00 Fair CLR 57.2 55.4 94% 29.6 0.0
05 00:55 SW 9 10.00 Fair CLR 57.2 55.4 73 56.7 94% 29.6 0.0
05 00:35 S 14 10.00 Partly Cloudy SCT001 SCT080 SCT095 57.2 55.4 94% 29.59 0.0
05 00:15 SW 15 10.00 Overcast BKN001 OVC070 57.2 55.4 94% 29.58 0.0
04 23:55 S 26 G 36 10.00 Light Rain and Windy BKN001 OVC070 57.2 55.4 94% 29.57 0.0
04 23:35 SW 18 G 25 10.00 Overcast BKN001 BKN075 OVC100 57.2 55.4 94% 29.61 0.0
Date Time (cdt) Wind (mph) Vis. (mi.) Weather Sky Cond. Air Dwpt Max. Min. Relative Humidity Wind Chill (°F) Heat Index (°F) altimeter (in) sea level (mb) 1 hr 3 hr 6 hr
6 hour
Temperature (ºF) Pressure Precipitation (in)